• Join FlightAware (Why Join?)
  • Login
  • US Flag 
12:48AM EDT


 

Airport Tracker/Info


-or-


 

Live Flight TrackerFlight Track Log ✈ N776GM ✈ 13-Jun-2013 ✈ KMDW - KMQS

Flight Track Log - Related Links

Times and Time Zones

All times are in EDT time to prevent confusion due to time zone crossing. See the N776GM flight status page for this flight to view local times or setup timezone preferences in your user account.

Time Position Orientation Groundspeed Altitude Reporting Facility
EDT Latitude Longitude Course Direction KTS MPH feet Rate Location/Type
04:15PM 41.8000 -87.7167 97° East 176 203 1,600  Level Chicago TRACON
04:16PM 41.7911 -87.6228 97° East 215 247 5,000 2,580 Climbing Chicago Center
04:17PM 41.7761 -87.5081 100° East 293 337 7,400 2,640 Climbing Chicago Center
04:18PM 41.7819 -87.4014 86° East 294 338 10,600 2,700 Climbing Chicago Center
04:19PM 41.7881 -87.2919 86° East 298 343 13,000 1,980 Climbing Chicago Center
04:20PM 41.7747 -87.1747 99° East 316 364 14,800 1,380 Climbing Chicago Center
04:21PM 41.7597 -87.0150 97° East 361 415 15,900 1,020 Climbing Chicago Center
04:22PM 41.7633 -86.8750 88° East 378 435 17,000 1,440 Climbing Chicago Center
04:23PM 41.7633 -86.7322 90° East 385 443 18,900 1,860 Climbing Chicago Center
04:24PM 41.7653 -86.6086 89° East 362 417 20,900 960 Climbing Chicago Center
04:25PM 41.7669 -86.4361 89° East 395 455 21,000  Climbing Chicago Center
04:26PM 41.7667 -86.2761 90° East 424 488 21,000 840 Level Chicago Center
04:27PM 41.7544 -86.1164 96° East 432 497 22,800 1,680 Climbing Chicago Center
04:28PM 41.7464 -85.9678 94° East 405 466 24,500 1,500 Climbing Chicago Center
04:30PM 41.7372 -85.8200 95° East 400 460 26,000 1,200 Climbing Chicago Center
04:31PM 41.7281 -85.6706 95° East 402 463 27,000 780 Climbing Chicago Center
04:32PM 41.7181 -85.5094 95° East 428 493 27,700 1,200 Climbing Chicago Center
04:33PM 41.7039 -85.3381 96° East 415 478 29,500 1,680 Climbing Chicago Center
04:34PM 41.6942 -85.1608 94° East 418 481 31,200 1,380 Climbing Chicago Center
04:35PM 41.6839 -85.0119 95° East 403 464 32,400 840 Climbing Chicago Center
04:36PM 41.6731 -84.8644 96° East 399 459 33,000 240 Climbing Chicago Center
04:37PM 41.6617 -84.7094 96° East 416 479 33,000  Level Chicago Center
04:38PM 41.6275 -84.5486 106° East 443 510 33,000  Level Chicago Center
04:39PM 41.5931 -84.3856 106° East 454 522 33,000  Level Chicago Center
04:40PM 41.5531 -84.1869 105° East 462 532 33,000  Level Chicago Center
04:41PM 41.5183 -84.0208 106° East 465 535 33,000  Level Chicago Center
04:42PM 41.4844 -83.8536 105° East 468 539 33,000  Level Chicago Center
04:43PM 41.4494 -83.6856 105° East 471 542 33,000  Level Chicago Center
04:44PM 41.4136 -83.5169 106° East 473 544 33,000  Level Chicago Center
04:45PM 41.3722 -83.3392 107° East 462 532 33,000  Level Cleveland Center
04:46PM 41.3328 -83.1550 106° East 462 532 33,000  Level Cleveland Center
04:47PM 41.2989 -82.9850 105° East 473 544 33,000  Level Cleveland Center
04:48PM 41.2608 -82.8094 106° East 479 551 33,000  Level Cleveland Center
04:49PM 41.2242 -82.6425 106° East 474 545 33,000  Level Cleveland Center
04:50PM 41.1856 -82.4675 106° East 480 552 33,000  Level Cleveland Center
04:51PM 41.1486 -82.2983 106° East 480 552 33,000  Level Cleveland Center
04:52PM 41.1094 -82.1292 107° East 480 552 33,000  Level Cleveland Center
04:53PM 41.0719 -81.9603 106° East 480 552 33,000  Level Cleveland Center
04:54PM 41.0322 -81.7914 107° East 480 552 33,000  Level Cleveland Center
04:55PM 40.9964 -81.6258 106° East 480 552 33,000  Level Cleveland Center
04:56PM 40.9581 -81.4575 107° East 475 547 33,000  Level Cleveland Center
04:57PM 40.9175 -81.2892 108° East 475 547 33,000  Level Cleveland Center
04:58PM 40.8789 -81.1242 107° East 475 547 33,000  Level Cleveland Center
04:59PM 40.8442 -80.9619 106° East 475 547 33,000  Level Cleveland Center
05:00PM 40.8050 -80.7944 107° East 475 547 33,000  Level Cleveland Center
05:01PM 40.7675 -80.6489 109° East 475 547 33,000  Level Cleveland Center
05:02PM 40.7281 -80.4844 108° East 463 533 33,000  Level Cleveland Center
05:03PM 40.6839 -80.3119 109° East 463 533 33,000  Level Cleveland Center
05:04PM 40.6439 -80.1481 108° East 457 526 33,000 -120 Level Cleveland Center
05:05PM 40.6075 -79.9842 106° East 462 532 32,800 -660 Descending Cleveland Center
05:06PM 40.5586 -79.8317 113° Southeast 461 531 31,700 -900 Descending Cleveland Center
05:07PM 40.4744 -79.7153 134° Southeast 431 496 31,000 -360 Descending Cleveland Center
05:08PM 40.3986 -79.6181 136° Southeast 431 496 31,000  Level Cleveland Center
05:09PM 40.3122 -79.5103 136° Southeast 431 496 31,000  Level Cleveland Center
05:10PM 40.2403 -79.3836 127° Southeast 430 495 31,000  Level Cleveland Center
05:11PM 40.2339 -79.2097 93° East 431 496 31,000  Level Cleveland Center
05:12PM 40.2442 -79.0353 86° East 447 514 31,000  Level Cleveland Center
05:13PM 40.2564 -78.8583 85° East 467 537 31,000 -300 Level Cleveland Center
05:14PM 40.2661 -78.6811 86° East 482 555 30,400 -960 Descending Cleveland Center
05:15PM 40.2794 -78.5011 84° East 487 560 29,100 -1,260 Descending Cleveland Center
05:16PM 40.2908 -78.3239 85° East 487 560 27,900 -1,260 Descending Cleveland Center
05:17PM 40.3047 -78.0683 86° East 472 543 26,100 -1,260 Descending New York Center
05:18PM 40.3097 -77.9192 87° East 472 543 25,000 -1,200 Descending New York Center
05:19PM 40.3092 -77.7531 90° East 466 536 23,700 -1,440 Descending New York Center
05:20PM 40.3108 -77.5844 89° East 460 529 22,200 -1,680 Descending New York Center
05:21PM 40.3097 -77.4208 90° East 460 529 20,500 -2,340 Descending New York Center
05:22PM 40.3047 -77.2489 92° East 447 514 17,500 -1,740 Descending New York Center
05:23PM 40.3025 -77.0961 91° East 428 493 17,100 -240 Descending New York Center
05:24PM 40.2725 -76.9519 105° East 410 472 17,100  Level New York Center
05:25PM 40.2389 -76.7994 106° East 422 486 17,100  Level New York Center
05:26PM 40.2100 -76.6664 106° East 427 491 17,100 -720 Level New York Center
05:27PM 40.1733 -76.5219 108° East 427 491 15,700 -2,760 Descending New York Center
05:28PM 40.1392 -76.3669 106° East 418 481 11,600 -3,000 Descending New York Center
05:29PM 40.1158 -76.2403 104° East 386 444 9,800 -1,440 Descending New York Center
05:30PM 40.1086 -76.1256 95° East 333 383 8,800 -1,680 Descending New York Center
05:31PM 40.1008 -76.0247 96° East 313 360 6,500 -2,460 Descending New York Center
05:32PM 40.0992 -75.9158 91° East 278 320 3,900 -1,320 Descending New York Center
05:33PM 40.1014 -75.8211 88° East 278 320 3,900 2,040 Level New York Center
05:34PM 40.0992 -75.7206 92° East 278 320 8,000 2,040 Climbing New York Center
05:35PM 40.0994 -75.6175 90° East 278 320 8,000  Level New York Center
05:36PM 40.0972 -75.5169 92° East 278 320 8,000  Level New York Center
05:38PM 40.0972 -75.5169 303° West 278 320 8,000  Level New York Center
05:40PM 40.0972 -75.5169 303° West 278 320 8,000  Level New York Center
05:42PM 40.0972 -75.5169 303° West 278 320 8,000  Level New York Center
05:45PM 40.0915 -75.6945 268° West  Level FlightAware Approximate
05:52PM 39.9667 -75.8500 207° Southwest  Level FlightAware Approximate
05:53PM 39.9790 -75.8655 207° Southwest  Level Estimated